Time;durP1;ratioP1;P1;durP2;ratioP2;P2;SDS_P1;SDS_P2;PMS_P1;PMS_P2;Temp;Humidity;BMP_temperature;BMP_pressure;BME280_temperature;BME280_humidity;BME280_pressure;Samples;Min_cycle;Max_cycle;Signal;HPM_P1;HPM_P2
2022/08/26 00:02:04;;;;;;;17.10;9.93;;;19.30;99.90;;;;;;6153226;23;20017;-83
2022/08/26 00:04:31;;;;;;;22.67;10.55;;;19.20;99.90;;;;;;6127768;23;20017;-83
2022/08/26 00:06:57;;;;;;;21.17;10.95;;;19.20;99.90;;;;;;6128477;23;20333;-83
2022/08/26 00:09:24;;;;;;;24.80;11.50;;;19.20;99.90;;;;;;6153207;23;20104;-83
2022/08/26 00:11:50;;;;;;;26.58;10.77;;;19.10;99.90;;;;;;6128683;23;20010;-83
2022/08/26 00:14:16;;;;;;;18.23;9.88;;;19.00;99.90;;;;;;6128429;23;20097;-84
2022/08/26 00:16:42;;;;;;;25.05;10.75;;;19.00;99.90;;;;;;6130143;23;20041;-83
2022/08/26 00:19:09;;;;;;;22.20;11.52;;;18.90;99.90;;;;;;6154817;23;20005;-83
2022/08/26 00:21:35;;;;;;;16.65;10.23;;;18.90;99.90;;;;;;6129881;23;20453;-83
2022/08/26 00:24:01;;;;;;;25.63;11.07;;;18.80;99.90;;;;;;6129743;23;20009;-83
2022/08/26 00:26:26;;;;;;;19.48;10.75;;;18.70;99.90;;;;;;6129819;23;20012;-83
2022/08/26 00:28:52;;;;;;;14.50;10.65;;;18.60;99.90;;;;;;6130067;23;20016;-84
2022/08/26 00:31:18;;;;;;;26.88;10.88;;;18.60;99.90;;;;;;6154512;23;20089;-84
2022/08/26 00:33:44;;;;;;;23.70;11.68;;;18.50;99.90;;;;;;6154088;23;20105;-83
2022/08/26 00:36:09;;;;;;;19.65;11.18;;;18.50;99.90;;;;;;6130043;23;20341;-83
2022/08/26 00:38:36;;;;;;;22.77;11.45;;;18.50;99.90;;;;;;6129819;23;20453;-84
2022/08/26 00:41:02;;;;;;;17.05;10.73;;;18.40;99.90;;;;;;6129628;23;20014;-84
2022/08/26 00:43:33;;;;;;;19.42;11.75;;;18.40;99.90;;;;;;6154660;23;20053;-83
2022/08/26 00:46:21;;;;;;;23.05;11.77;;;18.50;99.90;;;;;;6130390;23;20559;-84
2022/08/26 00:48:51;;;;;;;19.23;10.60;;;18.50;99.90;;;;;;6130302;23;20037;-83
2022/08/26 00:51:19;;;;;;;17.45;11.25;;;18.50;99.90;;;;;;6130451;23;20017;-83
2022/08/26 00:53:57;;;;;;;25.80;11.10;;;18.50;99.90;;;;;;6129899;23;20009;-83
2022/08/26 00:56:30;;;;;;;25.40;10.63;;;18.50;99.90;;;;;;6130275;23;20088;-83
2022/08/26 00:59:00;;;;;;;25.98;11.70;;;18.60;99.90;;;;;;6130244;23;20010;-84
2022/08/26 01:01:27;;;;;;;19.73;11.55;;;18.60;99.90;;;;;;6156176;23;20013;-83
2022/08/26 01:03:54;;;;;;;21.33;11.43;;;18.60;99.90;;;;;;6129846;23;20334;-83
2022/08/26 01:06:22;;;;;;;20.13;11.70;;;18.60;99.90;;;;;;6154516;23;19997;-84
2022/08/26 01:09:24;;;;;;;21.60;11.30;;;18.60;99.90;;;;;;6155951;23;20006;-83
2022/08/26 01:11:54;;;;;;;20.23;11.15;;;18.50;99.90;;;;;;6129491;23;20338;-83
2022/08/26 01:14:21;;;;;;;22.52;13.05;;;18.40;99.90;;;;;;6153310;23;20010;-83
2022/08/26 01:16:48;;;;;;;16.45;11.52;;;18.40;99.90;;;;;;6129421;23;20032;-84
2022/08/26 01:19:25;;;;;;;28.77;13.10;;;18.30;99.90;;;;;;6154180;23;20009;-83
2022/08/26 01:21:57;;;;;;;22.67;13.30;;;18.30;99.90;;;;;;6153931;23;20016;-84
2022/08/26 01:24:26;;;;;;;21.17;11.73;;;18.30;99.90;;;;;;6153759;23;20013;-83
2022/08/26 01:27:03;;;;;;;20.15;11.85;;;18.20;99.90;;;;;;6129248;23;20583;-83
2022/08/26 01:29:31;;;;;;;20.85;12.40;;;18.20;99.90;;;;;;6129290;23;20025;-84
2022/08/26 01:31:57;;;;;;;19.98;12.23;;;18.10;99.90;;;;;;6153800;23;20059;-83
2022/08/26 01:34:30;;;;;;;25.48;13.40;;;18.10;99.90;;;;;;6153525;23;20013;-83
2022/08/26 01:40:28;;;;;;;32.50;14.15;;;18.00;99.90;;;;;;6153850;23;20009;-83
2022/08/26 01:42:53;;;;;;;21.65;11.70;;;17.90;99.90;;;;;;6129555;23;20009;-84
2022/08/26 01:45:24;;;;;;;20.60;12.77;;;17.80;99.90;;;;;;6129184;23;20032;-83
2022/08/26 01:47:52;;;;;;;21.35;12.75;;;17.80;99.90;;;;;;6128468;23;20013;-84
2022/08/26 01:50:25;;;;;;;25.23;12.52;;;17.70;99.90;;;;;;6153849;23;20434;-84
2022/08/26 01:52:52;;;;;;;18.42;11.80;;;17.70;99.90;;;;;;6129290;23;20010;-83
2022/08/26 01:55:20;;;;;;;22.23;13.13;;;17.60;99.90;;;;;;6154039;23;20006;-84
2022/08/26 01:57:48;;;;;;;24.15;11.95;;;17.60;99.90;;;;;;6153923;23;20519;-83
2022/08/26 02:00:15;;;;;;;22.80;12.65;;;17.50;99.90;;;;;;6129581;23;20431;-83
2022/08/26 02:02:47;;;;;;;23.35;12.80;;;17.50;99.90;;;;;;6129378;23;20017;-84
2022/08/26 02:05:14;;;;;;;;;;;17.40;99.90;;;;;;6154155;23;20036;-84
2022/08/26 02:07:40;;;;;;;22.98;12.43;;;17.40;99.90;;;;;;6129630;23;19987;-83
2022/08/26 02:10:07;;;;;;;24.83;13.52;;;17.40;99.90;;;;;;6129541;23;20014;-84
2022/08/26 02:12:33;;;;;;;21.10;12.27;;;17.40;99.90;;;;;;6129481;23;20068;-84
2022/08/26 02:15:02;;;;;;;25.25;11.70;;;17.30;99.90;;;;;;6129255;23;20005;-84
2022/08/26 02:17:37;;;;;;;25.63;12.65;;;17.30;99.90;;;;;;6129568;23;20010;-84
2022/08/26 02:20:04;;;;;;;17.80;12.43;;;17.30;99.90;;;;;;6128791;23;20032;-83
2022/08/26 02:22:30;;;;;;;22.67;12.35;;;17.20;99.90;;;;;;6155499;23;20014;-83
2022/08/26 02:24:59;;;;;;;25.30;12.23;;;17.20;99.90;;;;;;6128328;23;20012;-83
2022/08/26 02:28:06;;;;;;;19.70;12.35;;;17.20;99.90;;;;;;6154140;23;20001;-84
2022/08/26 02:31:28;;;;;;;20.23;12.93;;;17.20;99.90;;;;;;6153549;23;20082;-84
2022/08/26 02:33:53;;;;;;;26.20;12.70;;;17.10;99.90;;;;;;6153682;23;20006;-83
2022/08/26 02:36:24;;;;;;;23.15;13.20;;;17.10;99.90;;;;;;6153605;23;20513;-83
2022/08/26 02:38:50;;;;;;;26.00;12.32;;;17.00;99.90;;;;;;6152808;23;20060;-83
2022/08/26 02:41:16;;;;;;;22.83;13.43;;;17.00;99.90;;;;;;6128560;23;20005;-84
2022/08/26 02:43:42;;;;;;;23.15;13.18;;;17.00;99.90;;;;;;6127935;23;20104;-84
2022/08/26 02:46:08;;;;;;;21.13;13.07;;;17.00;99.90;;;;;;6128640;23;20480;-83
2022/08/26 02:48:34;;;;;;;27.67;13.80;;;16.90;99.90;;;;;;6153198;23;20020;-84
2022/08/26 02:51:00;;;;;;;23.58;13.77;;;16.90;99.90;;;;;;6128739;23;20020;-83
2022/08/26 02:53:27;;;;;;;20.58;12.93;;;16.90;99.90;;;;;;6152773;23;20068;-84
2022/08/26 02:55:52;;;;;;;22.33;13.32;;;16.90;99.90;;;;;;6128158;23;20005;-84
2022/08/26 02:58:19;;;;;;;20.90;11.90;;;16.80;99.90;;;;;;6129333;23;20008;-83
2022/08/26 03:00:46;;;;;;;21.77;13.38;;;16.80;99.90;;;;;;6129296;23;20382;-84
2022/08/26 03:03:13;;;;;;;22.98;13.55;;;16.80;99.90;;;;;;6153371;23;20346;-83
2022/08/26 03:05:38;;;;;;;22.88;13.73;;;16.80;99.90;;;;;;6129151;23;20092;-83
2022/08/26 03:08:04;;;;;;;32.30;14.10;;;16.80;99.90;;;;;;6153070;23;20048;-83
2022/08/26 03:10:30;;;;;;;20.75;12.85;;;16.90;99.90;;;;;;6128929;23;20009;-83
2022/08/26 03:12:58;;;;;;;19.45;12.20;;;16.90;99.90;;;;;;6128812;23;20017;-83
2022/08/26 03:15:25;;;;;;;20.85;12.40;;;16.90;99.90;;;;;;6153584;23;20006;-83
2022/08/26 03:17:50;;;;;;;20.73;12.95;;;16.90;99.90;;;;;;6153487;23;20002;-84
2022/08/26 03:20:17;;;;;;;19.23;13.27;;;16.80;99.90;;;;;;6128912;23;20081;-84
2022/08/26 03:22:43;;;;;;;20.13;12.98;;;16.90;99.90;;;;;;6128430;23;20020;-83
2022/08/26 03:25:11;;;;;;;22.70;12.40;;;16.90;99.90;;;;;;6153117;23;20013;-83
2022/08/26 03:27:37;;;;;;;26.77;12.95;;;16.90;99.90;;;;;;6153268;23;20104;-83
2022/08/26 03:32:48;;;;;;;21.45;12.57;;;16.90;99.90;;;;;;6153306;23;20015;-84
2022/08/26 03:35:13;;;;;;;20.95;13.52;;;16.90;99.90;;;;;;6128568;23;20037;-84
2022/08/26 03:37:39;;;;;;;37.38;14.65;;;16.80;99.90;;;;;;6128774;23;20012;-84
2022/08/26 03:40:08;;;;;;;29.33;13.45;;;16.80;99.90;;;;;;6129034;23;20454;-84
2022/08/26 03:42:35;;;;;;;21.45;13.00;;;16.70;99.90;;;;;;6128914;23;20006;-84
2022/08/26 03:45:02;;;;;;;23.70;13.18;;;16.70;99.90;;;;;;6128534;23;20022;-83
2022/08/26 03:47:29;;;;;;;27.35;14.13;;;16.70;99.90;;;;;;6129090;23;20342;-83
2022/08/26 03:49:57;;;;;;;23.73;13.05;;;16.70;99.90;;;;;;6130661;23;20029;-84
2022/08/26 03:52:23;;;;;;;24.88;13.18;;;16.70;99.90;;;;;;6129979;23;20020;-83
2022/08/26 03:54:49;;;;;;;20.52;13.80;;;16.70;99.90;;;;;;6130200;23;20013;-84
2022/08/26 03:57:14;;;;;;;21.65;12.85;;;16.70;99.90;;;;;;6155471;23;20006;-83
2022/08/26 03:59:40;;;;;;;22.77;13.45;;;16.70;99.90;;;;;;6130983;23;20089;-83
2022/08/26 04:02:06;;;;;;;27.45;13.68;;;16.70;99.90;;;;;;6130849;23;20498;-84
2022/08/26 04:04:33;;;;;;;20.27;13.32;;;16.70;99.90;;;;;;6154492;23;20044;-84
2022/08/26 04:06:58;;;;;;;24.88;13.25;;;16.70;99.90;;;;;;6154677;23;20013;-84
2022/08/26 04:09:26;;;;;;;24.10;14.85;;;16.60;99.90;;;;;;6130360;23;20017;-83
2022/08/26 04:11:52;;;;;;;28.63;14.65;;;16.60;99.90;;;;;;6154773;23;20088;-83
2022/08/26 04:14:21;;;;;;;24.38;14.07;;;16.60;99.90;;;;;;6154532;23;20013;-84
2022/08/26 04:16:48;;;;;;;21.85;13.68;;;16.70;99.90;;;;;;6154491;23;20399;-84
2022/08/26 04:19:14;;;;;;;23.55;13.65;;;16.70;99.90;;;;;;6154933;23;20005;-84
2022/08/26 04:21:41;;;;;;;21.75;13.38;;;16.70;99.90;;;;;;6154807;23;20701;-84
2022/08/26 04:24:09;;;;;;;23.67;13.55;;;16.70;99.90;;;;;;6155055;23;20009;-84
2022/08/26 04:26:36;;;;;;;25.20;14.32;;;16.70;99.90;;;;;;6156811;23;20609;-83
2022/08/26 04:29:22;;;;;;;23.38;14.20;;;16.70;99.90;;;;;;6154858;23;20064;-83
2022/08/26 04:31:49;;;;;;;22.70;14.07;;;16.70;99.90;;;;;;6154754;23;20072;-84
2022/08/26 04:34:16;;;;;;;20.10;13.07;;;16.70;99.90;;;;;;6129928;23;20423;-83
2022/08/26 04:36:43;;;;;;;25.40;15.65;;;16.70;99.90;;;;;;6154716;23;20027;-84
2022/08/26 04:39:11;;;;;;;26.13;13.75;;;16.70;99.90;;;;;;6129876;23;20005;-84
2022/08/26 04:41:38;;;;;;;24.73;14.65;;;16.70;99.90;;;;;;6129670;23;20453;-84
2022/08/26 04:44:05;;;;;;;24.42;14.63;;;16.70;99.90;;;;;;6130119;23;20078;-83
2022/08/26 04:46:31;;;;;;;24.02;15.32;;;16.80;99.90;;;;;;6130350;23;20032;-84
2022/08/26 04:48:57;;;;;;;24.67;13.27;;;16.90;99.90;;;;;;6130461;23;20010;-84
2022/08/26 04:51:26;;;;;;;28.10;14.70;;;16.90;99.90;;;;;;6154705;23;20024;-83
2022/08/26 04:53:53;;;;;;;23.17;14.27;;;17.00;99.90;;;;;;6129812;23;20010;-83
2022/08/26 04:56:19;;;;;;;23.33;14.43;;;17.10;99.90;;;;;;6155135;23;20041;-84
2022/08/26 04:58:45;;;;;;;22.88;13.40;;;17.30;99.90;;;;;;6154922;23;20307;-83
2022/08/26 05:01:12;;;;;;;28.95;14.82;;;17.40;99.90;;;;;;6130496;23;20057;-83
2022/08/26 05:03:37;;;;;;;31.30;14.88;;;17.50;99.90;;;;;;6129995;23;20017;-84
2022/08/26 05:06:04;;;;;;;24.60;13.15;;;17.60;99.90;;;;;;6130219;23;20088;-84
2022/08/26 05:08:30;;;;;;;25.38;13.52;;;17.80;99.90;;;;;;6155400;23;20017;-84
2022/08/26 05:10:55;;;;;;;29.40;14.43;;;18.00;99.90;;;;;;6130493;23;20020;-84
2022/08/26 05:13:26;;;;;;;26.67;14.65;;;18.10;99.90;;;;;;6130003;23;20045;-83
2022/08/26 05:15:52;;;;;;;25.00;14.38;;;18.30;99.90;;;;;;6154816;23;20013;-83
2022/08/26 05:18:20;;;;;;;27.25;12.95;;;18.40;99.90;;;;;;6128919;23;20144;-83
2022/08/26 05:20:50;;;;;;;24.83;13.35;;;18.60;99.90;;;;;;6129691;23;20338;-83
2022/08/26 05:23:16;;;;;;;25.42;14.02;;;18.80;99.90;;;;;;6129550;23;20016;-83
2022/08/26 05:25:46;;;;;;;35.30;14.20;;;18.90;99.90;;;;;;6129184;23;20342;-84
2022/08/26 05:28:14;;;;;;;27.35;12.95;;;19.10;99.90;;;;;;6129633;23;20015;-83
2022/08/26 05:30:40;;;;;;;28.40;13.07;;;19.30;99.90;;;;;;6129508;23;20052;-83
2022/08/26 05:33:07;;;;;;;18.17;12.20;;;19.60;99.90;;;;;;6129106;23;20668;-83
2022/08/26 05:35:34;;;;;;;27.10;12.98;;;19.80;99.90;;;;;;6153613;23;20089;-83
2022/08/26 05:38:01;;;;;;;26.35;14.18;;;20.00;99.90;;;;;;6129490;23;20005;-83
2022/08/26 05:40:31;;;;;;;27.17;12.93;;;20.10;99.90;;;;;;6154500;23;20005;-83
2022/08/26 05:42:59;;;;;;;25.65;11.95;;;20.20;99.90;;;;;;6129084;23;20013;-83
2022/08/26 05:45:25;;;;;;;26.10;11.10;;;20.30;99.90;;;;;;6154145;23;20068;-83
2022/08/26 05:47:51;;;;;;;20.50;11.80;;;20.40;99.90;;;;;;6129294;23;20105;-83
2022/08/26 05:50:21;;;;;;;29.27;12.52;;;20.60;99.90;;;;;;6152970;23;20017;-84
2022/08/26 05:52:52;;;;;;;20.85;11.95;;;20.60;99.90;;;;;;6128129;23;20525;-83
2022/08/26 05:55:18;;;;;;;28.63;12.63;;;20.70;99.90;;;;;;6128934;23;20053;-84
2022/08/26 05:57:44;;;;;;;21.63;11.63;;;20.70;99.90;;;;;;6129123;23;20013;-83
2022/08/26 06:00:14;;;;;;;22.27;12.65;;;20.80;99.90;;;;;;6153899;23;20009;-83
2022/08/26 06:02:40;;;;;;;27.73;13.07;;;20.80;99.90;;;;;;6129843;23;20013;-83
2022/08/26 06:05:06;;;;;;;28.08;12.98;;;20.90;99.90;;;;;;6155506;23;20419;-83
2022/08/26 06:10:16;;;;;;;23.90;11.40;;;21.10;99.90;;;;;;6153838;23;20013;-83
2022/08/26 06:12:42;;;;;;;23.15;12.70;;;21.30;99.90;;;;;;6128115;23;20014;-83
2022/08/26 06:15:09;;;;;;;24.30;12.00;;;21.40;99.90;;;;;;6129334;23;20045;-83
2022/08/26 06:17:34;;;;;;;20.50;11.20;;;21.60;99.90;;;;;;6154360;23;20055;-83
2022/08/26 06:20:00;;;;;;;22.17;10.20;;;21.70;99.90;;;;;;6129425;23;20013;-84
2022/08/26 06:27:55;;;;;;;19.65;10.98;;;22.00;99.90;;;;;;6154876;23;20015;-83
2022/08/26 06:30:20;;;;;;;19.00;10.38;;;22.00;99.90;;;;;;6129038;23;20404;-84
2022/08/26 06:32:46;;;;;;;22.05;10.73;;;22.10;99.90;;;;;;6128596;23;20017;-84
2022/08/26 06:35:12;;;;;;;32.67;14.48;;;22.20;99.90;;;;;;6129248;23;20084;-84
2022/08/26 06:37:38;;;;;;;23.08;11.15;;;22.30;99.90;;;;;;6129464;23;20006;-83
2022/08/26 06:40:05;;;;;;;38.65;12.77;;;22.40;99.90;;;;;;6153515;23;20427;-84
2022/08/26 06:42:31;;;;;;;31.80;12.68;;;22.40;99.90;;;;;;6153735;23;20422;-83
2022/08/26 06:44:58;;;;;;;20.98;11.30;;;22.40;99.90;;;;;;6128100;23;20009;-83
2022/08/26 06:47:24;;;;;;;22.17;11.10;;;22.40;99.90;;;;;;6153197;23;20005;-83
2022/08/26 06:49:50;;;;;;;21.50;10.80;;;22.30;99.90;;;;;;6127372;23;20048;-83
2022/08/26 06:52:16;;;;;;;25.08;11.70;;;22.30;99.90;;;;;;6153083;23;20009;-83
2022/08/26 06:54:42;;;;;;;24.40;11.68;;;22.30;99.90;;;;;;6128044;23;20092;-83
2022/08/26 06:57:09;;;;;;;20.33;11.95;;;22.40;99.90;;;;;;6128044;23;20033;-83
2022/08/26 06:59:35;;;;;;;27.42;12.40;;;22.50;99.90;;;;;;6128805;23;20048;-83
2022/08/26 07:02:01;;;;;;;22.35;11.43;;;22.60;99.90;;;;;;6153735;23;20010;-84
2022/08/26 07:04:27;;;;;;;23.48;11.15;;;22.70;99.90;;;;;;6152501;23;20021;-83
2022/08/26 07:06:53;;;;;;;19.70;11.05;;;22.80;99.90;;;;;;6153214;23;20315;-83
2022/08/26 07:09:25;;;;;;;21.58;10.95;;;22.90;99.90;;;;;;6153836;23;20461;-83
2022/08/26 07:11:55;;;;;;;24.23;10.35;;;22.90;99.90;;;;;;6153477;23;20060;-83
2022/08/26 07:14:21;;;;;;;20.17;11.00;;;22.90;99.90;;;;;;6128804;23;20009;-83
2022/08/26 07:16:47;;;;;;;22.08;11.10;;;22.90;99.90;;;;;;6129029;23;20005;-84
2022/08/26 07:19:13;;;;;;;24.50;10.80;;;22.90;99.90;;;;;;6129119;23;20013;-83
2022/08/26 07:21:40;;;;;;;19.65;10.32;;;23.00;99.90;;;;;;6128944;23;20006;-83
2022/08/26 07:24:07;;;;;;;26.15;11.85;;;23.20;99.90;;;;;;6153175;23;20008;-84
2022/08/26 07:26:33;;;;;;;22.25;11.32;;;23.30;99.90;;;;;;6154850;23;20033;-84
2022/08/26 07:29:21;;;;;;;20.60;10.43;;;23.50;99.90;;;;;;6128672;23;20021;-83
2022/08/26 07:31:46;;;;;;;26.45;10.65;;;23.70;99.90;;;;;;6128744;23;20012;-84
2022/08/26 07:34:12;;;;;;;22.85;10.50;;;23.90;99.90;;;;;;6128505;23;20080;-84
2022/08/26 07:36:38;;;;;;;18.80;11.07;;;24.10;99.90;;;;;;6128582;23;20014;-84
2022/08/26 07:39:05;;;;;;;26.98;10.60;;;24.20;99.90;;;;;;6128373;23;20017;-84
2022/08/26 07:41:31;;;;;;;21.50;10.93;;;24.40;99.90;;;;;;6128759;23;20005;-84
2022/08/26 07:43:56;;;;;;;26.60;10.32;;;24.60;99.90;;;;;;6153215;23;20020;-84
2022/08/26 07:46:22;;;;;;;25.95;11.18;;;24.80;99.90;;;;;;6128506;23;20097;-83
2022/08/26 07:48:49;;;;;;;25.08;10.07;;;24.90;99.90;;;;;;6128830;23;20013;-84
2022/08/26 07:51:17;;;;;;;20.20;9.80;;;25.10;99.90;;;;;;6129238;23;20092;-84
2022/08/26 07:53:45;;;;;;;22.50;10.45;;;25.10;99.90;;;;;;6128332;23;20009;-84
2022/08/26 07:56:10;;;;;;;15.50;9.05;;;25.20;99.90;;;;;;6153422;23;20009;-83
2022/08/26 07:58:37;;;;;;;25.05;9.73;;;25.20;99.90;;;;;;6128570;23;20426;-84
2022/08/26 08:01:04;;;;;;;17.88;9.02;;;25.20;99.90;;;;;;6153971;23;20396;-84
2022/08/26 08:03:30;;;;;;;23.42;9.55;;;25.40;99.90;;;;;;6153045;23;20354;-84
2022/08/26 08:05:56;;;;;;;19.58;10.52;;;25.70;99.90;;;;;;6154797;23;20016;-84
2022/08/26 08:08:22;;;;;;;25.27;10.57;;;25.90;99.90;;;;;;6128635;23;20005;-84
2022/08/26 08:10:47;;;;;;;18.77;10.27;;;26.00;99.90;;;;;;6128772;23;20389;-84
2022/08/26 08:13:13;;;;;;;25.95;9.63;;;26.30;99.90;;;;;;6154589;23;20017;-84
2022/08/26 08:15:48;;;;;;;19.67;8.57;;;26.60;99.90;;;;;;6129239;23;20013;-84
2022/08/26 08:18:15;;;;;;;25.60;9.50;;;26.80;99.90;;;;;;6153475;23;20009;-84
2022/08/26 08:20:41;;;;;;;23.10;9.82;;;26.50;99.90;;;;;;6129124;23;20010;-84
2022/08/26 08:23:06;;;;;;;27.70;9.73;;;26.20;99.90;;;;;;6129127;23;20444;-84
2022/08/26 08:26:00;;;;;;;20.48;10.45;;;26.10;99.90;;;;;;6155151;23;20060;-84
2022/08/26 08:28:26;;;;;;;26.42;10.93;;;26.20;99.90;;;;;;6129095;23;20062;-83
2022/08/26 08:30:51;;;;;;;24.17;11.15;;;26.50;99.90;;;;;;6153531;23;20009;-84
2022/08/26 08:33:17;;;;;;;21.92;9.93;;;26.70;99.90;;;;;;6153388;23;20016;-84
2022/08/26 08:35:44;;;;;;;20.27;11.40;;;26.70;99.90;;;;;;6129602;23;20005;-84
2022/08/26 08:38:10;;;;;;;27.52;10.27;;;26.90;99.90;;;;;;6130923;23;20011;-84
2022/08/26 08:40:39;;;;;;;23.80;9.60;;;27.10;99.90;;;;;;6130657;23;20503;-84
2022/08/26 08:43:12;;;;;;;21.33;9.35;;;27.40;99.90;;;;;;6130503;23;20020;-84
2022/08/26 08:45:48;;;;;;;25.38;10.05;;;27.50;99.90;;;;;;6154677;23;20021;-84
2022/08/26 08:48:18;;;;;;;27.45;10.02;;;27.60;99.90;;;;;;6154668;23;20006;-85
2022/08/26 08:50:55;;;;;;;27.77;10.90;;;27.50;99.90;;;;;;6130002;23;20448;-85
2022/08/26 08:53:36;;;;;;;24.48;10.77;;;27.70;99.90;;;;;;6154353;23;20729;-85
2022/08/26 08:56:13;;;;;;;27.00;10.05;;;28.00;99.90;;;;;;6154954;23;20607;-85
2022/08/26 08:58:42;;;;;;;26.88;10.88;;;27.80;99.90;;;;;;6130242;23;20398;-85
2022/08/26 09:01:16;;;;;;;22.17;9.25;;;28.10;99.90;;;;;;6154840;23;20077;-84
2022/08/26 09:04:11;;;;;;;36.03;10.52;;;28.80;99.90;;;;;;6129866;23;20064;-84
2022/08/26 09:06:37;;;;;;;24.35;9.25;;;30.20;99.90;;;;;;6130386;23;20500;-84
2022/08/26 09:09:06;;;;;;;28.10;9.38;;;31.50;99.90;;;;;;6154795;23;20009;-85
2022/08/26 09:11:34;;;;;;;14.32;8.40;;;33.10;99.90;;;;;;6154491;23;20010;-85
2022/08/26 09:14:00;;;;;;;18.13;7.93;;;34.40;98.00;;;;;;6154215;23;20018;-85
2022/08/26 09:16:51;;;;;;;18.60;8.00;;;35.40;95.00;;;;;;6130249;23;20067;-85
2022/08/26 09:19:36;;;;;;;27.08;9.07;;;36.10;91.30;;;;;;6153638;23;20029;-85
2022/08/26 09:22:02;;;;;;;27.85;8.23;;;36.50;89.10;;;;;;6154681;23;20012;-85
2022/08/26 09:24:31;;;;;;;26.08;8.43;;;36.30;85.50;;;;;;6154033;23;20010;-85
2022/08/26 09:26:57;;;;;;;19.02;7.75;;;36.70;84.50;;;;;;6154592;23;20005;-85
2022/08/26 09:29:41;;;;;;;14.13;7.25;;;36.30;82.10;;;;;;6154790;23;20014;-85
2022/08/26 09:32:23;;;;;;;25.38;8.70;;;36.70;81.00;;;;;;6130240;23;20494;-84
2022/08/26 09:35:00;;;;;;;17.73;7.50;;;37.00;78.80;;;;;;6154778;23;20005;-85
2022/08/26 09:37:42;;;;;;;23.52;8.27;;;35.80;77.20;;;;;;6130603;23;20052;-85
2022/08/26 09:40:33;;;;;;;18.02;7.50;;;35.20;79.20;;;;;;6153871;23;20016;-85
2022/08/26 09:43:16;;;;;;;26.33;8.38;;;34.80;79.10;;;;;;6154875;23;20012;-85
2022/08/26 09:45:48;;;;;;;26.70;8.07;;;34.40;80.40;;;;;;6130237;23;20779;-84
2022/08/26 09:48:28;;;;;;;21.90;8.77;;;34.00;81.30;;;;;;6129829;23;20009;-85
2022/08/26 09:51:00;;;;;;;24.50;8.43;;;33.80;89.90;;;;;;6130063;23;20009;-85
2022/08/26 09:53:33;;;;;;;16.73;8.68;;;33.30;90.80;;;;;;6154941;23;20010;-85
2022/08/26 09:56:32;;;;;;;19.67;8.43;;;32.80;90.60;;;;;;6129507;23;20658;-85
2022/08/26 09:58:59;;;;;;;14.50;7.85;;;32.70;91.30;;;;;;6138270;23;20010;-85
2022/08/26 10:01:41;;;;;;;12.65;7.45;;;32.90;90.90;;;;;;6129828;23;20005;-84
2022/08/26 10:04:20;;;;;;;23.67;6.93;;;32.30;92.70;;;;;;6129249;23;20041;-84
2022/08/26 10:07:00;;;;;;;17.33;7.28;;;31.50;91.60;;;;;;6129639;23;20005;-84
2022/08/26 10:09:32;;;;;;;15.03;7.00;;;30.60;91.80;;;;;;6129514;23;20422;-84
2022/08/26 10:12:03;;;;;;;15.75;6.93;;;29.70;93.40;;;;;;6129603;23;20009;-84
2022/08/26 10:14:38;;;;;;;14.55;7.88;;;29.40;94.90;;;;;;6129254;23;20060;-84
2022/08/26 10:17:15;;;;;;;17.08;8.27;;;29.00;96.00;;;;;;6129381;23;20009;-84
2022/08/26 10:19:50;;;;;;;16.13;7.50;;;28.50;97.10;;;;;;6153997;23;20012;-85
2022/08/26 10:22:48;;;;;;;17.77;7.32;;;28.20;99.90;;;;;;6153845;23;20316;-85
2022/08/26 10:25:20;;;;;;;20.45;8.32;;;27.70;99.90;;;;;;6095286;23;20021;-84
2022/08/26 10:28:01;;;;;;;19.35;9.25;;;26.50;99.90;;;;;;6128632;23;20434;-84
2022/08/26 10:30:34;;;;;;;14.57;8.35;;;25.20;99.90;;;;;;6129063;23;20017;-84
2022/08/26 10:33:05;;;;;;;15.57;7.90;;;24.10;99.90;;;;;;6153471;23;20022;-84
2022/08/26 10:35:34;;;;;;;16.55;8.27;;;23.20;99.90;;;;;;6128506;23;20411;-83
2022/08/26 10:38:06;;;;;;;12.65;6.63;;;22.50;99.90;;;;;;6128542;23;20438;-84
2022/08/26 10:41:01;;;;;;;16.73;7.35;;;21.80;99.90;;;;;;6128724;23;20021;-85
2022/08/26 10:43:35;;;;;;;14.50;8.35;;;21.20;99.90;;;;;;6128860;23;20006;-83
2022/08/26 10:46:15;;;;;;;24.27;10.50;;;21.10;99.90;;;;;;6153863;23;20005;-86
2022/08/26 10:48:57;;;;;;;11.95;8.45;;;21.30;99.90;;;;;;6155518;23;20006;-84
2022/08/26 10:51:37;;;;;;;18.25;8.50;;;21.70;99.90;;;;;;6129354;23;20009;-84
2022/08/26 10:54:22;;;;;;;20.30;8.32;;;21.90;99.90;;;;;;6153691;23;20497;-84
2022/08/26 10:57:07;;;;;;;11.00;7.13;;;22.10;99.90;;;;;;6128900;23;20445;-84
2022/08/26 10:59:55;;;;;;;14.23;6.65;;;22.20;99.90;;;;;;6128665;23;20013;-84
2022/08/26 11:02:38;;;;;;;10.80;6.47;;;22.20;99.90;;;;;;6153419;23;20342;-84
2022/08/26 11:05:22;;;;;;;11.68;6.25;;;22.40;99.90;;;;;;6153522;23;20013;-84
2022/08/26 11:07:51;;;;;;;14.10;7.07;;;22.50;99.90;;;;;;6151619;23;20330;-85
2022/08/26 11:10:20;;;;;;;13.85;6.18;;;22.80;99.90;;;;;;6128961;23;20764;-84
2022/08/26 11:12:58;;;;;;;14.75;6.95;;;23.20;99.90;;;;;;6128653;23;20017;-84
2022/08/26 11:15:24;;;;;;;16.35;7.13;;;23.40;99.90;;;;;;6128906;23;20028;-84
2022/08/26 11:18:28;;;;;;;11.98;7.03;;;23.70;99.90;;;;;;6154796;23;20012;-84
2022/08/26 11:20:54;;;;;;;15.35;7.75;;;24.10;99.90;;;;;;6153248;23;20002;-83
2022/08/26 11:23:19;;;;;;;19.85;7.32;;;24.20;99.90;;;;;;6152707;23;20017;-84
2022/08/26 11:26:04;;;;;;;15.52;8.27;;;24.20;99.90;;;;;;6153469;23;20006;-84
2022/08/26 11:28:35;;;;;;;16.77;8.27;;;24.00;99.90;;;;;;6129215;23;20017;-85
2022/08/26 11:31:03;;;;;;;16.52;8.02;;;23.90;99.90;;;;;;6128914;23;20092;-84
2022/08/26 11:33:49;;;;;;;12.60;7.60;;;23.70;99.90;;;;;;6152907;23;20641;-85
2022/08/26 11:36:36;;;;;;;14.20;7.28;;;23.60;99.90;;;;;;6152709;23;20006;-84
2022/08/26 11:39:33;;;;;;;15.40;7.93;;;23.70;99.90;;;;;;6153691;23;20005;-84
2022/08/26 11:42:22;;;;;;;15.35;8.15;;;23.80;99.90;;;;;;6153476;23;20028;-84
2022/08/26 11:44:47;;;;;;;16.60;7.93;;;23.80;99.90;;;;;;6113334;23;20010;-84
2022/08/26 11:47:16;;;;;;;13.23;8.05;;;23.80;99.90;;;;;;6128587;23;20315;-84
2022/08/26 11:49:42;;;;;;;11.02;7.60;;;23.70;99.90;;;;;;6153479;23;20080;-84
2022/08/26 11:52:17;;;;;;;13.10;8.23;;;23.60;99.90;;;;;;6128700;23;20577;-84
2022/08/26 11:55:06;;;;;;;11.43;7.65;;;23.60;99.90;;;;;;6153243;23;20061;-84
2022/08/26 11:57:34;;;;;;;16.05;7.05;;;23.50;99.90;;;;;;6153415;23;20016;-84
2022/08/26 12:00:01;;;;;;;14.23;8.30;;;23.30;99.90;;;;;;6128495;23;20390;-84
2022/08/26 12:02:27;;;;;;;15.75;8.55;;;23.30;99.90;;;;;;6153405;23;20833;-84
2022/08/26 12:04:54;;;;;;;10.75;7.13;;;23.30;99.90;;;;;;6152929;23;20009;-84
2022/08/26 12:07:26;;;;;;;16.05;7.72;;;23.40;99.90;;;;;;6153147;23;20137;-84
2022/08/26 12:10:29;;;;;;;18.80;8.65;;;23.40;99.90;;;;;;6129090;23;20430;-84
2022/08/26 12:12:58;;;;;;;15.68;7.55;;;23.30;99.90;;;;;;6154772;23;20037;-84
2022/08/26 12:15:25;;;;;;;14.43;8.07;;;23.30;99.90;;;;;;6130282;23;19997;-84
2022/08/26 12:17:51;;;;;;;16.33;8.57;;;23.30;99.90;;;;;;6130634;23;20005;-84
2022/08/26 12:20:46;;;;;;;13.80;8.40;;;23.30;99.90;;;;;;6156320;23;20033;-84
2022/08/26 12:23:30;;;;;;;13.90;7.97;;;23.30;99.90;;;;;;6129734;23;20025;-84
2022/08/26 12:26:24;;;;;;;13.13;7.03;;;23.30;99.90;;;;;;6129679;23;20009;-84
2022/08/26 12:29:22;;;;;;;16.60;7.90;;;23.30;99.90;;;;;;6154645;23;20358;-84
2022/08/26 12:31:48;;;;;;;10.43;6.88;;;23.40;99.90;;;;;;6154543;23;20012;-84
2022/08/26 12:34:15;;;;;;;16.60;7.47;;;23.50;99.90;;;;;;6129725;23;20330;-84
2022/08/26 12:36:47;;;;;;;15.32;9.05;;;23.60;99.90;;;;;;6154743;23;20012;-84
2022/08/26 12:39:24;;;;;;;14.73;7.75;;;23.60;99.90;;;;;;6130311;23;20014;-84
2022/08/26 12:41:53;;;;;;;20.63;8.57;;;23.50;99.90;;;;;;6129977;23;20014;-85
2022/08/26 12:44:43;;;;;;;14.55;7.43;;;23.40;99.90;;;;;;6129336;23;20136;-84
2022/08/26 12:47:24;;;;;;;12.88;6.93;;;23.30;99.90;;;;;;6154823;23;20037;-84
2022/08/26 12:49:59;;;;;;;;;;;23.30;99.90;;;;;;6155414;23;20037;-84
2022/08/26 12:52:30;;;;;;;18.10;7.72;;;23.30;99.90;;;;;;6130095;23;19915;-84
2022/08/26 12:55:01;;;;;;;12.60;7.63;;;23.30;99.90;;;;;;6129938;23;20032;-84
2022/08/26 12:57:46;;;;;;;15.00;7.60;;;23.30;99.90;;;;;;6130412;23;20044;-84
2022/08/26 13:00:31;;;;;;;14.82;7.30;;;23.50;99.90;;;;;;6130426;23;20009;-84
2022/08/26 13:02:58;;;;;;;8.80;7.30;;;23.60;99.90;;;;;;6130181;23;20013;-84
2022/08/26 13:05:28;;;;;;;13.95;8.30;;;23.80;99.90;;;;;;6154674;23;20096;-84